createdAt,value
2022-10-14T00:03:39.602Z,7.94
2022-10-14T00:13:41.271Z,8.01
2022-10-14T00:23:43.807Z,8.01
2022-10-14T00:33:45.797Z,8.09
2022-10-14T00:43:59.795Z,8.04
2022-10-14T00:54:01.780Z,8.02
2022-10-14T01:04:09.491Z,7.99
2022-10-14T01:14:45.872Z,7.96
2022-10-14T01:25:10.722Z,7.96
2022-10-14T01:35:21.584Z,7.86
2022-10-14T01:45:27.958Z,7.86
2022-10-14T01:55:35.235Z,7.74
2022-10-14T02:05:42.574Z,7.71
2022-10-14T02:16:49.703Z,7.71
2022-10-14T02:26:55.009Z,7.66
2022-10-14T02:37:00.707Z,7.69
2022-10-14T02:47:04.641Z,7.74
2022-10-14T02:57:06.247Z,7.72
2022-10-14T03:07:09.043Z,7.70
2022-10-14T03:17:11.794Z,7.60
2022-10-14T03:27:13.335Z,7.61
2022-10-14T03:37:14.909Z,7.82
2022-10-14T03:47:16.679Z,7.78
2022-10-14T03:57:18.303Z,7.83
2022-10-14T04:07:20.194Z,8.10
2022-10-14T04:17:24.721Z,8.10
2022-10-14T04:27:26.391Z,8.00
2022-10-14T04:37:29.207Z,7.96
2022-10-14T04:47:31.168Z,7.92
2022-10-14T04:57:35.066Z,7.72
2022-10-14T05:07:39.656Z,7.65
2022-10-14T05:17:44.822Z,7.82
2022-10-14T05:27:46.955Z,8.03
2022-10-14T05:37:48.819Z,8.33
2022-10-14T05:47:50.839Z,8.66
2022-10-14T05:57:56.682Z,8.86
2022-10-14T06:07:58.899Z,9.01
2022-10-14T06:18:00.569Z,9.41
2022-10-14T06:28:05.550Z,9.65
2022-10-14T06:38:07.138Z,10.10
2022-10-14T06:48:13.415Z,10.45
2022-10-14T06:58:29.102Z,10.55
2022-10-14T07:08:31.101Z,11.04
2022-10-14T07:18:33.066Z,11.30
2022-10-14T07:28:34.771Z,11.78
2022-10-14T07:38:37.287Z,12.36
2022-10-14T07:48:57.713Z,12.95
2022-10-14T07:58:59.779Z,13.92
2022-10-14T08:09:08.305Z,14.86
2022-10-14T08:19:14.663Z,16.08
2022-10-14T08:29:17.149Z,16.79
2022-10-14T08:39:19.772Z,17.58
2022-10-14T08:49:31.398Z,18.52
2022-10-14T08:59:41.269Z,18.53
2022-10-14T09:09:50.317Z,19.75
2022-10-14T09:20:00.653Z,20.42
2022-10-14T09:30:10.301Z,21.63
2022-10-14T09:40:13.215Z,21.22
2022-10-14T09:50:25.702Z,21.96
2022-10-14T10:00:34.587Z,23.38
2022-10-14T10:10:36.943Z,24.36
2022-10-14T10:20:38.510Z,25.43
2022-10-14T10:30:58.211Z,25.34
2022-10-14T10:41:16.837Z,25.82
2022-10-14T10:51:46.451Z,25.15
2022-10-14T11:02:25.623Z,27.57
2022-10-14T11:12:52.577Z,29.14
2022-10-14T11:23:20.420Z,27.22
2022-10-14T11:33:46.821Z,28.93
2022-10-14T11:44:29.090Z,29.19
2022-10-14T11:54:36.922Z,29.53
2022-10-14T12:05:20.057Z,32.34
2022-10-14T12:15:25.982Z,28.42
2022-10-14T12:25:36.804Z,25.12
2022-10-14T12:35:52.402Z,27.38
2022-10-14T12:45:58.428Z,24.37
2022-10-14T12:56:02.320Z,20.90
2022-10-14T13:06:37.123Z,31.59
2022-10-14T13:16:38.850Z,28.02
2022-10-14T13:26:53.971Z,29.70
2022-10-14T13:37:11.801Z,25.40
2022-10-14T13:47:15.017Z,25.38
2022-10-14T13:57:47.975Z,27.68
2022-10-14T14:18:01.082Z,27.71
2022-10-14T14:28:06.749Z,26.68
2022-10-14T14:38:34.456Z,23.32
2022-10-14T14:48:38.560Z,20.92
2022-10-14T14:58:55.501Z,20.28
2022-10-14T15:09:10.401Z,19.15
2022-10-14T15:19:37.234Z,18.47
2022-10-14T15:29:40.321Z,17.75
2022-10-14T15:39:41.889Z,17.11
2022-10-14T15:49:45.219Z,16.55
2022-10-14T15:59:46.832Z,16.23
2022-10-14T16:09:52.688Z,15.85
2022-10-14T16:19:56.096Z,15.47
2022-10-14T16:30:13.545Z,15.05
2022-10-14T16:40:25.815Z,14.85
2022-10-14T16:50:28.659Z,14.67
2022-10-14T17:00:30.324Z,14.46
2022-10-14T17:10:38.915Z,14.24
2022-10-14T17:20:40.534Z,13.96
2022-10-14T17:30:43.043Z,13.76
2022-10-14T17:40:44.694Z,13.73
2022-10-14T17:50:49.784Z,13.64
2022-10-14T18:00:51.652Z,13.39
2022-10-14T18:10:53.409Z,13.29
2022-10-14T18:20:57.276Z,13.11
2022-10-14T18:31:04.392Z,12.91
2022-10-14T18:41:11.723Z,12.78
2022-10-14T18:51:17.104Z,12.53
2022-10-14T19:01:38.430Z,12.20
2022-10-14T19:11:44.519Z,11.94
2022-10-14T19:21:49.268Z,11.84
2022-10-14T19:31:54.926Z,11.75
2022-10-14T19:42:01.824Z,11.65
2022-10-14T19:52:04.529Z,11.53
2022-10-14T20:02:08.281Z,11.42
2022-10-14T20:12:09.958Z,11.23
2022-10-14T20:22:11.752Z,11.08
2022-10-14T20:32:13.327Z,10.84
2022-10-14T20:42:16.467Z,10.85
2022-10-14T20:52:18.324Z,10.86
2022-10-14T21:02:21.732Z,10.68
2022-10-14T21:12:23.567Z,10.65
2022-10-14T21:22:25.608Z,10.60
2022-10-14T21:32:30.524Z,10.79
2022-10-14T21:42:32.089Z,10.73
2022-10-14T21:52:36.544Z,10.65
2022-10-14T22:02:41.248Z,10.96
2022-10-14T22:12:42.844Z,11.09
2022-10-14T22:22:45.287Z,10.88
2022-10-14T22:32:46.923Z,10.73
2022-10-14T22:42:51.424Z,10.46
2022-10-14T22:52:54.041Z,10.45
2022-10-14T23:02:55.871Z,10.28
2022-10-14T23:12:57.538Z,10.04
2022-10-14T23:23:02.393Z,9.96
2022-10-14T23:33:05.626Z,9.79
2022-10-14T23:43:09.022Z,9.65
2022-10-14T23:53:11.439Z,9.58
